Jump to content


DELTA AIRLINES FLIGHT DL832 FLOWN ON 09-22-2017 BY CAPTAIN JIM BOERMAN

Pilot StatsCaptain Jim Boerman (LDP136) • 4,616.9 total hours • 1,400 total flights [View Logbook]
FLIGHT DETAILS
StatusReceived and approved on 2017-09-22 at 11:09:21
Origin AirportSalt Lake City Intl (KSLC) • Salt Lake City, Utah, United States (4,226 feet MSL)
Filed Flight PlanKSLC ODUCE J173 EKR J116 FQF J80 MCI J24 STL J134 FLM J24 HVQ J8 DILNN J213 AML KDCA
Destination AirportRonald Reagan Washington Natl (KDCA) • Washington, Virginia, United States (15 feet MSL)
Alternate AirportRichmond Intl (KRIC) • Richmond, Virginia, United States (167 feet MSL)
AirlineDelta Airlines
AircraftBoeing 757-200 | Winglets (75W / B757-200)
FS Aircraft UsedQWSim Boeing 757-200WL Delta N688DL QWHDT
Cruising AltitudeFL350
Distance Flown1,605 nautical miles
Passengers Onboard160 passengers (86.02% full)
DEPARTURE DETAILS
Time Out05:40:04
Taxi Data225,268 lbs total with 37,757 lbs of fuel onboard
Takeoff Data05:54:25 (14 minutes after leaving gate/ramp) • 223,449 lbs total • 7° pitch at 161 knots
Departure METARKSLC 221054Z 13005KT 10SM BKN027 OVC038 07/04 A2983 RMK AO2 SLP083 P0001 T00670044
ARRIVAL DETAILS
Landing Data11:34:47 • 193,036 lbs total • 4° pitch doing 136 knots at a rate of -352.95 feet/minute with 4,920 lbs of fuel onboard
Time In11:40:43 (6 minutes after landing)
Ramp Weight192,431 lbs total
Total Fuel Used32,837 lbs
Total Block Time03:56:14 (3.9 hours) while 20 minutes were spent on the ground
Arrival METARKDCA 221452Z VRB03KT 10SM BKN110 BKN250 27/18 A3008 RMK AO2 SLP187 T02670183 50003
MISCELLANEOUS DETAILS
LiveDISPATCH Version4.8.3.1
FS Version
FSUIPC Version4.93
OS VersionWindows 7 32-bit
Screen Resolution1920 x 1080
Pilot's CommentsNo Comments Reported
FLIGHT MAP